sensor_id;sensor_type;location;lat;lon;timestamp;pressure;altitude;pressure_sealevel;temperature
64960;BMP180;51487;52.266;10.542;2022-12-07T00:01:26;100356.00;;;2.90
64960;BMP180;51487;52.266;10.542;2022-12-07T00:03:54;100341.00;;;2.80
64960;BMP180;51487;52.266;10.542;2022-12-07T00:06:30;100347.00;;;2.90
64960;BMP180;51487;52.266;10.542;2022-12-07T00:08:58;100335.00;;;2.90
64960;BMP180;51487;52.266;10.542;2022-12-07T00:11:24;100339.00;;;2.90
64960;BMP180;51487;52.266;10.542;2022-12-07T00:13:54;100335.00;;;3.00
64960;BMP180;51487;52.266;10.542;2022-12-07T00:16:23;100333.00;;;3.00
64960;BMP180;51487;52.266;10.542;2022-12-07T00:18:50;100335.00;;;3.00
64960;BMP180;51487;52.266;10.542;2022-12-07T00:21:21;100325.00;;;3.00
64960;BMP180;51487;52.266;10.542;2022-12-07T00:23:50;100320.00;;;3.00
64960;BMP180;51487;52.266;10.542;2022-12-07T00:26:37;100316.00;;;3.00
64960;BMP180;51487;52.266;10.542;2022-12-07T00:29:08;100312.00;;;3.00
64960;BMP180;51487;52.266;10.542;2022-12-07T00:31:38;100320.00;;;3.10
64960;BMP180;51487;52.266;10.542;2022-12-07T00:34:05;100321.00;;;3.00
64960;BMP180;51487;52.266;10.542;2022-12-07T00:36:37;100322.00;;;3.10
64960;BMP180;51487;52.266;10.542;2022-12-07T00:39:03;100323.00;;;3.10
64960;BMP180;51487;52.266;10.542;2022-12-07T00:41:29;100325.00;;;3.00
64960;BMP180;51487;52.266;10.542;2022-12-07T00:43:55;100315.00;;;3.10
64960;BMP180;51487;52.266;10.542;2022-12-07T00:46:22;100309.00;;;3.10
64960;BMP180;51487;52.266;10.542;2022-12-07T00:48:49;100307.00;;;3.10
64960;BMP180;51487;52.266;10.542;2022-12-07T00:51:17;100302.00;;;3.00
64960;BMP180;51487;52.266;10.542;2022-12-07T00:53:44;100313.00;;;3.10
64960;BMP180;51487;52.266;10.542;2022-12-07T00:56:25;100305.00;;;3.00
64960;BMP180;51487;52.266;10.542;2022-12-07T00:58:54;100292.00;;;3.20
64960;BMP180;51487;52.266;10.542;2022-12-07T01:01:30;100295.00;;;3.20
64960;BMP180;51487;52.266;10.542;2022-12-07T01:03:57;100293.00;;;3.10
64960;BMP180;51487;52.266;10.542;2022-12-07T01:06:24;100292.00;;;3.10
64960;BMP180;51487;52.266;10.542;2022-12-07T01:08:50;100298.00;;;3.30
64960;BMP180;51487;52.266;10.542;2022-12-07T01:11:20;100290.00;;;3.10
64960;BMP180;51487;52.266;10.542;2022-12-07T01:13:49;100295.00;;;3.00
64960;BMP180;51487;52.266;10.542;2022-12-07T01:16:17;100288.00;;;3.20
64960;BMP180;51487;52.266;10.542;2022-12-07T01:18:46;100289.00;;;3.10
64960;BMP180;51487;52.266;10.542;2022-12-07T01:21:19;100289.00;;;3.20
64960;BMP180;51487;52.266;10.542;2022-12-07T01:23:47;100277.00;;;3.20
64960;BMP180;51487;52.266;10.542;2022-12-07T01:26:17;100277.00;;;3.30
64960;BMP180;51487;52.266;10.542;2022-12-07T01:28:45;100276.00;;;3.20
64960;BMP180;51487;52.266;10.542;2022-12-07T01:31:19;100277.00;;;3.20
64960;BMP180;51487;52.266;10.542;2022-12-07T01:33:47;100281.00;;;3.20
64960;BMP180;51487;52.266;10.542;2022-12-07T01:38:55;100273.00;;;3.20
64960;BMP180;51487;52.266;10.542;2022-12-07T01:41:25;100263.00;;;3.10
64960;BMP180;51487;52.266;10.542;2022-12-07T01:44:16;100259.00;;;3.30
64960;BMP180;51487;52.266;10.542;2022-12-07T01:46:44;100261.00;;;3.10
64960;BMP180;51487;52.266;10.542;2022-12-07T01:49:24;100261.00;;;3.20
64960;BMP180;51487;52.266;10.542;2022-12-07T01:52:31;100254.00;;;3.20
64960;BMP180;51487;52.266;10.542;2022-12-07T01:55:03;100257.00;;;3.10
64960;BMP180;51487;52.266;10.542;2022-12-07T01:57:33;100259.00;;;3.00
64960;BMP180;51487;52.266;10.542;2022-12-07T02:00:02;100254.00;;;3.00
64960;BMP180;51487;52.266;10.542;2022-12-07T02:02:33;100248.00;;;3.10
64960;BMP180;51487;52.266;10.542;2022-12-07T02:05:04;100250.00;;;3.20
64960;BMP180;51487;52.266;10.542;2022-12-07T02:07:32;100238.00;;;3.20
64960;BMP180;51487;52.266;10.542;2022-12-07T02:10:21;100241.00;;;3.20
64960;BMP180;51487;52.266;10.542;2022-12-07T02:12:52;100239.00;;;3.20
64960;BMP180;51487;52.266;10.542;2022-12-07T02:15:25;100239.00;;;3.20
64960;BMP180;51487;52.266;10.542;2022-12-07T02:18:17;100236.00;;;3.30
64960;BMP180;51487;52.266;10.542;2022-12-07T02:21:24;100239.00;;;3.30
64960;BMP180;51487;52.266;10.542;2022-12-07T02:29:49;100221.00;;;3.10
64960;BMP180;51487;52.266;10.542;2022-12-07T02:32:27;100228.00;;;3.20
64960;BMP180;51487;52.266;10.542;2022-12-07T02:38:02;100227.00;;;3.10
64960;BMP180;51487;52.266;10.542;2022-12-07T02:40:55;100212.00;;;3.20
64960;BMP180;51487;52.266;10.542;2022-12-07T02:43:34;100215.00;;;3.10
64960;BMP180;51487;52.266;10.542;2022-12-07T02:46:09;100214.00;;;3.30
64960;BMP180;51487;52.266;10.542;2022-12-07T02:48:39;100199.00;;;3.20
64960;BMP180;51487;52.266;10.542;2022-12-07T02:51:08;100209.00;;;3.20
64960;BMP180;51487;52.266;10.542;2022-12-07T02:53:42;100209.00;;;3.20
64960;BMP180;51487;52.266;10.542;2022-12-07T02:58:49;100207.00;;;3.20
64960;BMP180;51487;52.266;10.542;2022-12-07T03:10:56;100197.00;;;3.30
64960;BMP180;51487;52.266;10.542;2022-12-07T03:18:53;100192.00;;;3.50
64960;BMP180;51487;52.266;10.542;2022-12-07T03:21:34;100196.00;;;3.50
64960;BMP180;51487;52.266;10.542;2022-12-07T03:24:08;100197.00;;;3.70
64960;BMP180;51487;52.266;10.542;2022-12-07T03:26:47;100200.00;;;3.60
64960;BMP180;51487;52.266;10.542;2022-12-07T03:29:33;100197.00;;;3.60
64960;BMP180;51487;52.266;10.542;2022-12-07T03:32:08;100199.00;;;3.80
64960;BMP180;51487;52.266;10.542;2022-12-07T03:35:08;100186.00;;;3.80
64960;BMP180;51487;52.266;10.542;2022-12-07T03:43:30;100186.00;;;3.70
64960;BMP180;51487;52.266;10.542;2022-12-07T03:49:00;100177.00;;;3.70
64960;BMP180;51487;52.266;10.542;2022-12-07T03:51:36;100181.00;;;3.70
64960;BMP180;51487;52.266;10.542;2022-12-07T03:56:45;100169.00;;;3.60
64960;BMP180;51487;52.266;10.542;2022-12-07T03:59:13;100182.00;;;3.60
64960;BMP180;51487;52.266;10.542;2022-12-07T04:01:53;100179.00;;;3.60
64960;BMP180;51487;52.266;10.542;2022-12-07T04:04:24;100187.00;;;3.60
64960;BMP180;51487;52.266;10.542;2022-12-07T04:06:50;100179.00;;;3.50
64960;BMP180;51487;52.266;10.542;2022-12-07T04:09:16;100192.00;;;3.70
64960;BMP180;51487;52.266;10.542;2022-12-07T04:11:42;100190.00;;;3.80
64960;BMP180;51487;52.266;10.542;2022-12-07T04:14:08;100190.00;;;3.80
64960;BMP180;51487;52.266;10.542;2022-12-07T04:19:24;100182.00;;;3.90
64960;BMP180;51487;52.266;10.542;2022-12-07T04:21:51;100181.00;;;3.80
64960;BMP180;51487;52.266;10.542;2022-12-07T04:24:17;100186.00;;;3.90
64960;BMP180;51487;52.266;10.542;2022-12-07T04:26:44;100182.00;;;3.90
64960;BMP180;51487;52.266;10.542;2022-12-07T04:29:10;100185.00;;;3.90
64960;BMP180;51487;52.266;10.542;2022-12-07T04:31:36;100186.00;;;3.90
64960;BMP180;51487;52.266;10.542;2022-12-07T04:34:03;100177.00;;;3.80
64960;BMP180;51487;52.266;10.542;2022-12-07T04:36:30;100182.00;;;3.80
64960;BMP180;51487;52.266;10.542;2022-12-07T04:38:56;100177.00;;;3.80
64960;BMP180;51487;52.266;10.542;2022-12-07T04:41:23;100183.00;;;3.80
64960;BMP180;51487;52.266;10.542;2022-12-07T04:44:00;100173.00;;;3.70
64960;BMP180;51487;52.266;10.542;2022-12-07T04:46:29;100176.00;;;3.80
64960;BMP180;51487;52.266;10.542;2022-12-07T04:48:56;100182.00;;;3.80
64960;BMP180;51487;52.266;10.542;2022-12-07T04:51:24;100174.00;;;3.80
64960;BMP180;51487;52.266;10.542;2022-12-07T04:53:51;100173.00;;;3.80
64960;BMP180;51487;52.266;10.542;2022-12-07T04:56:17;100169.00;;;3.60
64960;BMP180;51487;52.266;10.542;2022-12-07T04:58:44;100170.00;;;3.60
64960;BMP180;51487;52.266;10.542;2022-12-07T05:01:12;100177.00;;;3.70
64960;BMP180;51487;52.266;10.542;2022-12-07T05:03:39;100168.00;;;3.60
64960;BMP180;51487;52.266;10.542;2022-12-07T05:06:05;100181.00;;;3.60
64960;BMP180;51487;52.266;10.542;2022-12-07T05:08:32;100181.00;;;3.60
64960;BMP180;51487;52.266;10.542;2022-12-07T05:10:59;100177.00;;;3.70
64960;BMP180;51487;52.266;10.542;2022-12-07T05:13:25;100192.00;;;3.60
64960;BMP180;51487;52.266;10.542;2022-12-07T05:15:51;100193.00;;;3.60
64960;BMP180;51487;52.266;10.542;2022-12-07T05:18:17;100184.00;;;3.50
64960;BMP180;51487;52.266;10.542;2022-12-07T05:20:43;100182.00;;;3.50
64960;BMP180;51487;52.266;10.542;2022-12-07T05:23:10;100179.00;;;3.50
64960;BMP180;51487;52.266;10.542;2022-12-07T05:25:35;100176.00;;;3.50
64960;BMP180;51487;52.266;10.542;2022-12-07T05:28:01;100182.00;;;3.50
64960;BMP180;51487;52.266;10.542;2022-12-07T05:30:27;100187.00;;;3.40
64960;BMP180;51487;52.266;10.542;2022-12-07T05:32:53;100184.00;;;3.40
64960;BMP180;51487;52.266;10.542;2022-12-07T05:35:19;100189.00;;;3.40
64960;BMP180;51487;52.266;10.542;2022-12-07T05:37:45;100186.00;;;3.40
64960;BMP180;51487;52.266;10.542;2022-12-07T05:40:11;100182.00;;;3.40
64960;BMP180;51487;52.266;10.542;2022-12-07T05:42:39;100182.00;;;3.40
64960;BMP180;51487;52.266;10.542;2022-12-07T05:45:06;100179.00;;;3.30
64960;BMP180;51487;52.266;10.542;2022-12-07T05:47:32;100176.00;;;3.30
64960;BMP180;51487;52.266;10.542;2022-12-07T05:49:57;100173.00;;;3.30
64960;BMP180;51487;52.266;10.542;2022-12-07T05:52:23;100167.00;;;3.40
64960;BMP180;51487;52.266;10.542;2022-12-07T05:54:49;100179.00;;;3.40
64960;BMP180;51487;52.266;10.542;2022-12-07T05:57:14;100174.00;;;3.40
64960;BMP180;51487;52.266;10.542;2022-12-07T05:59:40;100181.00;;;3.50
64960;BMP180;51487;52.266;10.542;2022-12-07T06:02:11;100172.00;;;3.60
64960;BMP180;51487;52.266;10.542;2022-12-07T06:04:42;100181.00;;;3.50
64960;BMP180;51487;52.266;10.542;2022-12-07T06:07:09;100177.00;;;3.60
64960;BMP180;51487;52.266;10.542;2022-12-07T06:09:36;100169.00;;;3.60
64960;BMP180;51487;52.266;10.542;2022-12-07T06:12:03;100167.00;;;3.70
64960;BMP180;51487;52.266;10.542;2022-12-07T06:14:47;100172.00;;;3.60
64960;BMP180;51487;52.266;10.542;2022-12-07T06:17:14;100183.00;;;3.60
64960;BMP180;51487;52.266;10.542;2022-12-07T06:19:40;100176.00;;;3.60
64960;BMP180;51487;52.266;10.542;2022-12-07T06:22:06;100181.00;;;3.50
64960;BMP180;51487;52.266;10.542;2022-12-07T06:24:34;100183.00;;;3.40
64960;BMP180;51487;52.266;10.542;2022-12-07T06:27:00;100185.00;;;3.30
64960;BMP180;51487;52.266;10.542;2022-12-07T06:29:25;100180.00;;;3.10
64960;BMP180;51487;52.266;10.542;2022-12-07T06:31:51;100178.00;;;3.00
64960;BMP180;51487;52.266;10.542;2022-12-07T06:34:19;100177.00;;;3.00
64960;BMP180;51487;52.266;10.542;2022-12-07T06:36:48;100181.00;;;2.90
64960;BMP180;51487;52.266;10.542;2022-12-07T06:39:17;100186.00;;;2.80
64960;BMP180;51487;52.266;10.542;2022-12-07T06:41:43;100202.00;;;2.60
64960;BMP180;51487;52.266;10.542;2022-12-07T06:44:09;100184.00;;;2.60
64960;BMP180;51487;52.266;10.542;2022-12-07T06:46:35;100197.00;;;2.60
64960;BMP180;51487;52.266;10.542;2022-12-07T06:49:01;100199.00;;;2.60
64960;BMP180;51487;52.266;10.542;2022-12-07T06:51:27;100193.00;;;2.60
64960;BMP180;51487;52.266;10.542;2022-12-07T06:53:52;100181.00;;;2.70
64960;BMP180;51487;52.266;10.542;2022-12-07T06:56:19;100196.00;;;2.70
64960;BMP180;51487;52.266;10.542;2022-12-07T06:58:45;100189.00;;;2.90
64960;BMP180;51487;52.266;10.542;2022-12-07T07:01:12;100191.00;;;3.00
64960;BMP180;51487;52.266;10.542;2022-12-07T07:03:39;100188.00;;;3.10
64960;BMP180;51487;52.266;10.542;2022-12-07T07:06:05;100187.00;;;3.10
64960;BMP180;51487;52.266;10.542;2022-12-07T07:08:33;100183.00;;;3.00
64960;BMP180;51487;52.266;10.542;2022-12-07T07:10:59;100187.00;;;3.10
64960;BMP180;51487;52.266;10.542;2022-12-07T07:13:25;100177.00;;;3.30
64960;BMP180;51487;52.266;10.542;2022-12-07T07:15:51;100184.00;;;3.30
64960;BMP180;51487;52.266;10.542;2022-12-07T07:18:16;100188.00;;;3.40
64960;BMP180;51487;52.266;10.542;2022-12-07T07:20:42;100186.00;;;3.40
64960;BMP180;51487;52.266;10.542;2022-12-07T07:23:07;100202.00;;;3.60
64960;BMP180;51487;52.266;10.542;2022-12-07T07:25:33;100197.00;;;3.50
64960;BMP180;51487;52.266;10.542;2022-12-07T07:27:59;100196.00;;;3.50
64960;BMP180;51487;52.266;10.542;2022-12-07T07:30:25;100193.00;;;3.60
64960;BMP180;51487;52.266;10.542;2022-12-07T07:32:51;100197.00;;;3.60
64960;BMP180;51487;52.266;10.542;2022-12-07T07:35:25;100197.00;;;3.60
64960;BMP180;51487;52.266;10.542;2022-12-07T07:37:51;100194.00;;;3.60
64960;BMP180;51487;52.266;10.542;2022-12-07T07:40:16;100194.00;;;3.60
64960;BMP180;51487;52.266;10.542;2022-12-07T07:42:42;100199.00;;;3.60
64960;BMP180;51487;52.266;10.542;2022-12-07T07:45:08;100202.00;;;3.50
64960;BMP180;51487;52.266;10.542;2022-12-07T07:47:34;100205.00;;;3.50
64960;BMP180;51487;52.266;10.542;2022-12-07T07:50:00;100207.00;;;3.60
64960;BMP180;51487;52.266;10.542;2022-12-07T07:52:26;100211.00;;;3.70
64960;BMP180;51487;52.266;10.542;2022-12-07T07:54:51;100205.00;;;3.70
64960;BMP180;51487;52.266;10.542;2022-12-07T07:57:17;100201.00;;;3.40
64960;BMP180;51487;52.266;10.542;2022-12-07T07:59:43;100204.00;;;3.50
64960;BMP180;51487;52.266;10.542;2022-12-07T08:02:14;100203.00;;;3.40
64960;BMP180;51487;52.266;10.542;2022-12-07T08:04:41;100214.00;;;3.40
64960;BMP180;51487;52.266;10.542;2022-12-07T08:07:07;100214.00;;;3.40
64960;BMP180;51487;52.266;10.542;2022-12-07T08:09:32;100226.00;;;3.50
64960;BMP180;51487;52.266;10.542;2022-12-07T08:11:58;100223.00;;;3.50
64960;BMP180;51487;52.266;10.542;2022-12-07T08:14:24;100222.00;;;3.60
64960;BMP180;51487;52.266;10.542;2022-12-07T08:16:49;100226.00;;;3.60
64960;BMP180;51487;52.266;10.542;2022-12-07T08:19:15;100221.00;;;3.40
64960;BMP180;51487;52.266;10.542;2022-12-07T08:21:41;100218.00;;;3.30
64960;BMP180;51487;52.266;10.542;2022-12-07T08:24:06;100226.00;;;3.30
64960;BMP180;51487;52.266;10.542;2022-12-07T08:26:32;100213.00;;;3.50
64960;BMP180;51487;52.266;10.542;2022-12-07T08:28:57;100218.00;;;3.60
64960;BMP180;51487;52.266;10.542;2022-12-07T08:31:23;100211.00;;;3.60
64960;BMP180;51487;52.266;10.542;2022-12-07T08:33:49;100211.00;;;3.70
64960;BMP180;51487;52.266;10.542;2022-12-07T08:36:16;100207.00;;;3.70
64960;BMP180;51487;52.266;10.542;2022-12-07T08:38:43;100207.00;;;3.70
64960;BMP180;51487;52.266;10.542;2022-12-07T08:41:08;100214.00;;;3.70
64960;BMP180;51487;52.266;10.542;2022-12-07T08:43:35;100214.00;;;3.70
64960;BMP180;51487;52.266;10.542;2022-12-07T08:46:23;100215.00;;;3.60
64960;BMP180;51487;52.266;10.542;2022-12-07T08:49:01;100215.00;;;3.50
64960;BMP180;51487;52.266;10.542;2022-12-07T08:51:30;100212.00;;;3.60
64960;BMP180;51487;52.266;10.542;2022-12-07T08:53:56;100216.00;;;3.70
64960;BMP180;51487;52.266;10.542;2022-12-07T08:56:26;100222.00;;;3.50
64960;BMP180;51487;52.266;10.542;2022-12-07T08:58:52;100230.00;;;3.70
64960;BMP180;51487;52.266;10.542;2022-12-07T09:01:18;100226.00;;;3.50
64960;BMP180;51487;52.266;10.542;2022-12-07T09:03:43;100224.00;;;3.50
64960;BMP180;51487;52.266;10.542;2022-12-07T09:06:09;100234.00;;;3.50
64960;BMP180;51487;52.266;10.542;2022-12-07T09:08:42;100227.00;;;3.60
64960;BMP180;51487;52.266;10.542;2022-12-07T09:11:11;100224.00;;;3.60
64960;BMP180;51487;52.266;10.542;2022-12-07T09:13:36;100231.00;;;3.70
64960;BMP180;51487;52.266;10.542;2022-12-07T09:16:02;100227.00;;;3.90
64960;BMP180;51487;52.266;10.542;2022-12-07T09:18:27;100224.00;;;3.90
64960;BMP180;51487;52.266;10.542;2022-12-07T09:20:53;100225.00;;;3.90
64960;BMP180;51487;52.266;10.542;2022-12-07T09:23:19;100227.00;;;3.70
64960;BMP180;51487;52.266;10.542;2022-12-07T09:25:44;100243.00;;;3.70
64960;BMP180;51487;52.266;10.542;2022-12-07T09:28:10;100226.00;;;3.70
64960;BMP180;51487;52.266;10.542;2022-12-07T09:30:35;100227.00;;;3.70
64960;BMP180;51487;52.266;10.542;2022-12-07T09:33:01;100216.00;;;3.70
64960;BMP180;51487;52.266;10.542;2022-12-07T09:35:26;100222.00;;;3.60
64960;BMP180;51487;52.266;10.542;2022-12-07T09:37:52;100221.00;;;3.70
64960;BMP180;51487;52.266;10.542;2022-12-07T09:40:20;100216.00;;;3.60
64960;BMP180;51487;52.266;10.542;2022-12-07T09:42:50;100226.00;;;3.80
64960;BMP180;51487;52.266;10.542;2022-12-07T09:45:34;100217.00;;;3.90
64960;BMP180;51487;52.266;10.542;2022-12-07T09:48:02;100219.00;;;3.90
64960;BMP180;51487;52.266;10.542;2022-12-07T09:50:29;100217.00;;;3.80
64960;BMP180;51487;52.266;10.542;2022-12-07T09:53:14;100214.00;;;3.90
64960;BMP180;51487;52.266;10.542;2022-12-07T09:55:50;100225.00;;;3.70
64960;BMP180;51487;52.266;10.542;2022-12-07T09:58:24;100227.00;;;3.60
64960;BMP180;51487;52.266;10.542;2022-12-07T10:00:55;100225.00;;;3.70
64960;BMP180;51487;52.266;10.542;2022-12-07T10:03:23;100220.00;;;3.80
64960;BMP180;51487;52.266;10.542;2022-12-07T10:05:52;100219.00;;;3.90
64960;BMP180;51487;52.266;10.542;2022-12-07T10:08:18;100214.00;;;3.80
64960;BMP180;51487;52.266;10.542;2022-12-07T10:10:45;100215.00;;;4.00
64960;BMP180;51487;52.266;10.542;2022-12-07T10:13:19;100204.00;;;3.90
64960;BMP180;51487;52.266;10.542;2022-12-07T10:18:35;100212.00;;;4.00
64960;BMP180;51487;52.266;10.542;2022-12-07T10:26:54;100212.00;;;4.10
64960;BMP180;51487;52.266;10.542;2022-12-07T10:29:28;100218.00;;;4.20
64960;BMP180;51487;52.266;10.542;2022-12-07T10:35:25;100200.00;;;3.90
64960;BMP180;51487;52.266;10.542;2022-12-07T10:37:54;100200.00;;;3.90
64960;BMP180;51487;52.266;10.542;2022-12-07T10:40:38;100206.00;;;3.70
64960;BMP180;51487;52.266;10.542;2022-12-07T11:01:33;100198.00;;;4.10
64960;BMP180;51487;52.266;10.542;2022-12-07T11:07:10;100198.00;;;4.10
64960;BMP180;51487;52.266;10.542;2022-12-07T11:10:26;100193.00;;;4.10
64960;BMP180;51487;52.266;10.542;2022-12-07T11:19:24;100187.00;;;4.20
64960;BMP180;51487;52.266;10.542;2022-12-07T11:22:33;100185.00;;;4.10
64960;BMP180;51487;52.266;10.542;2022-12-07T11:25:17;100172.00;;;4.20
64960;BMP180;51487;52.266;10.542;2022-12-07T11:31:17;100186.00;;;4.20
64960;BMP180;51487;52.266;10.542;2022-12-07T11:34:15;100186.00;;;4.10
64960;BMP180;51487;52.266;10.542;2022-12-07T11:36:54;100184.00;;;4.00
64960;BMP180;51487;52.266;10.542;2022-12-07T11:39:29;100179.00;;;4.00
64960;BMP180;51487;52.266;10.542;2022-12-07T11:42:06;100190.00;;;4.10
64960;BMP180;51487;52.266;10.542;2022-12-07T11:44:52;100177.00;;;4.30
64960;BMP180;51487;52.266;10.542;2022-12-07T11:47:38;100166.00;;;4.50
64960;BMP180;51487;52.266;10.542;2022-12-07T11:50:32;100164.00;;;4.50
64960;BMP180;51487;52.266;10.542;2022-12-07T11:53:19;100161.00;;;4.50
64960;BMP180;51487;52.266;10.542;2022-12-07T11:56:08;100157.00;;;4.20
64960;BMP180;51487;52.266;10.542;2022-12-07T12:06:34;100151.00;;;4.50
64960;BMP180;51487;52.266;10.542;2022-12-07T12:20:03;100155.00;;;4.10
64960;BMP180;51487;52.266;10.542;2022-12-07T12:22:41;100137.00;;;4.00
64960;BMP180;51487;52.266;10.542;2022-12-07T12:25:28;100141.00;;;4.10
64960;BMP180;51487;52.266;10.542;2022-12-07T12:28:01;100129.00;;;4.00
64960;BMP180;51487;52.266;10.542;2022-12-07T12:30:35;100125.00;;;4.20
64960;BMP180;51487;52.266;10.542;2022-12-07T12:33:23;100124.00;;;4.10
64960;BMP180;51487;52.266;10.542;2022-12-07T12:47:03;100102.00;;;4.30
64960;BMP180;51487;52.266;10.542;2022-12-07T12:50:18;100091.00;;;4.10
64960;BMP180;51487;52.266;10.542;2022-12-07T12:55:49;100090.00;;;4.30
64960;BMP180;51487;52.266;10.542;2022-12-07T12:58:37;100058.00;;;4.50
64960;BMP180;51487;52.266;10.542;2022-12-07T13:04:02;100029.00;;;4.50
64960;BMP180;51487;52.266;10.542;2022-12-07T13:06:41;98576.00;;;4.50
64960;BMP180;51487;52.266;10.542;2022-12-07T13:09:18;99476.00;;;4.30
64960;BMP180;51487;52.266;10.542;2022-12-07T13:11:48;99836.00;;;4.20
64960;BMP180;51487;52.266;10.542;2022-12-07T13:14:58;99907.00;;;4.20
64960;BMP180;51487;52.266;10.542;2022-12-07T13:20:03;99892.00;;;4.00
64960;BMP180;51487;52.266;10.542;2022-12-07T13:25:12;99660.00;;;4.00
64960;BMP180;51487;52.266;10.542;2022-12-07T13:27:51;99752.00;;;4.00
64960;BMP180;51487;52.266;10.542;2022-12-07T13:30:22;99601.00;;;4.00
64960;BMP180;51487;52.266;10.542;2022-12-07T13:32:54;99508.00;;;3.90
64960;BMP180;51487;52.266;10.542;2022-12-07T13:35:47;99539.00;;;3.80
64960;BMP180;51487;52.266;10.542;2022-12-07T13:38:33;99781.00;;;4.00
64960;BMP180;51487;52.266;10.542;2022-12-07T13:41:16;99788.00;;;4.00
64960;BMP180;51487;52.266;10.542;2022-12-07T13:46:57;99877.00;;;4.00
64960;BMP180;51487;52.266;10.542;2022-12-07T13:49:37;100046.00;;;4.00
64960;BMP180;51487;52.266;10.542;2022-12-07T13:57:20;100093.00;;;3.80
64960;BMP180;51487;52.266;10.542;2022-12-07T13:59:47;100074.00;;;3.70
64960;BMP180;51487;52.266;10.542;2022-12-07T14:02:33;100116.00;;;3.70
64960;BMP180;51487;52.266;10.542;2022-12-07T14:07:52;100116.00;;;3.70
64960;BMP180;51487;52.266;10.542;2022-12-07T14:10:28;100112.00;;;3.70
64960;BMP180;51487;52.266;10.542;2022-12-07T14:12:55;100114.00;;;3.70
64960;BMP180;51487;52.266;10.542;2022-12-07T14:15:25;100112.00;;;3.60
64960;BMP180;51487;52.266;10.542;2022-12-07T14:17:55;100107.00;;;3.70
64960;BMP180;51487;52.266;10.542;2022-12-07T14:20:31;100112.00;;;3.70
64960;BMP180;51487;52.266;10.542;2022-12-07T14:23:03;100118.00;;;3.70
64960;BMP180;51487;52.266;10.542;2022-12-07T14:25:48;100097.00;;;3.70
64960;BMP180;51487;52.266;10.542;2022-12-07T14:28:30;100112.00;;;3.70
64960;BMP180;51487;52.266;10.542;2022-12-07T14:30:59;100115.00;;;3.80
64960;BMP180;51487;52.266;10.542;2022-12-07T14:33:25;100106.00;;;3.80
64960;BMP180;51487;52.266;10.542;2022-12-07T14:35:51;100104.00;;;3.90
64960;BMP180;51487;52.266;10.542;2022-12-07T14:38:20;100111.00;;;3.90
64960;BMP180;51487;52.266;10.542;2022-12-07T14:40:47;100105.00;;;3.90
64960;BMP180;51487;52.266;10.542;2022-12-07T14:43:16;100106.00;;;3.80
64960;BMP180;51487;52.266;10.542;2022-12-07T14:45:43;100099.00;;;3.80
64960;BMP180;51487;52.266;10.542;2022-12-07T14:48:13;100106.00;;;3.90
64960;BMP180;51487;52.266;10.542;2022-12-07T14:50:43;100101.00;;;3.90
64960;BMP180;51487;52.266;10.542;2022-12-07T14:53:16;100107.00;;;3.90
64960;BMP180;51487;52.266;10.542;2022-12-07T14:55:43;100108.00;;;3.90
64960;BMP180;51487;52.266;10.542;2022-12-07T14:58:14;100105.00;;;3.90
64960;BMP180;51487;52.266;10.542;2022-12-07T15:00:41;100116.00;;;3.80
64960;BMP180;51487;52.266;10.542;2022-12-07T15:03:06;100110.00;;;3.90
64960;BMP180;51487;52.266;10.542;2022-12-07T15:05:33;100120.00;;;4.00
64960;BMP180;51487;52.266;10.542;2022-12-07T15:07:59;100114.00;;;4.00
64960;BMP180;51487;52.266;10.542;2022-12-07T15:10:30;100117.00;;;4.00
64960;BMP180;51487;52.266;10.542;2022-12-07T15:13:02;100117.00;;;3.90
64960;BMP180;51487;52.266;10.542;2022-12-07T15:15:48;100109.00;;;4.00
64960;BMP180;51487;52.266;10.542;2022-12-07T15:18:15;100110.00;;;4.00
64960;BMP180;51487;52.266;10.542;2022-12-07T15:20:41;100105.00;;;3.90
64960;BMP180;51487;52.266;10.542;2022-12-07T15:23:07;100106.00;;;4.00
64960;BMP180;51487;52.266;10.542;2022-12-07T15:25:33;100103.00;;;4.00
64960;BMP180;51487;52.266;10.542;2022-12-07T15:27:58;100099.00;;;3.90
64960;BMP180;51487;52.266;10.542;2022-12-07T15:30:24;100109.00;;;3.90
64960;BMP180;51487;52.266;10.542;2022-12-07T15:32:51;100097.00;;;3.90
64960;BMP180;51487;52.266;10.542;2022-12-07T15:35:17;100099.00;;;3.90
64960;BMP180;51487;52.266;10.542;2022-12-07T15:37:43;100106.00;;;3.80
64960;BMP180;51487;52.266;10.542;2022-12-07T15:40:09;100106.00;;;3.90
64960;BMP180;51487;52.266;10.542;2022-12-07T15:42:36;100091.00;;;3.80
64960;BMP180;51487;52.266;10.542;2022-12-07T15:45:02;100094.00;;;3.90
64960;BMP180;51487;52.266;10.542;2022-12-07T15:47:29;100091.00;;;4.00
64960;BMP180;51487;52.266;10.542;2022-12-07T15:49:55;100090.00;;;3.90
64960;BMP180;51487;52.266;10.542;2022-12-07T15:52:21;100091.00;;;3.90
64960;BMP180;51487;52.266;10.542;2022-12-07T15:54:46;100087.00;;;3.90
64960;BMP180;51487;52.266;10.542;2022-12-07T15:57:12;100090.00;;;4.00
64960;BMP180;51487;52.266;10.542;2022-12-07T15:59:38;100105.00;;;3.80
64960;BMP180;51487;52.266;10.542;2022-12-07T16:02:04;100106.00;;;3.90
64960;BMP180;51487;52.266;10.542;2022-12-07T16:04:29;100107.00;;;4.00
64960;BMP180;51487;52.266;10.542;2022-12-07T16:06:55;100118.00;;;3.70
64960;BMP180;51487;52.266;10.542;2022-12-07T16:09:21;100110.00;;;3.30
64960;BMP180;51487;52.266;10.542;2022-12-07T16:11:47;100122.00;;;3.10
64960;BMP180;51487;52.266;10.542;2022-12-07T16:14:13;100132.00;;;2.80
64960;BMP180;51487;52.266;10.542;2022-12-07T16:16:38;100143.00;;;2.60
64960;BMP180;51487;52.266;10.542;2022-12-07T16:19:05;100142.00;;;2.20
64960;BMP180;51487;52.266;10.542;2022-12-07T16:21:31;100144.00;;;1.90
64960;BMP180;51487;52.266;10.542;2022-12-07T16:23:59;100134.00;;;1.60
64960;BMP180;51487;52.266;10.542;2022-12-07T16:26:24;100129.00;;;1.70
64960;BMP180;51487;52.266;10.542;2022-12-07T16:28:51;100122.00;;;1.70
64960;BMP180;51487;52.266;10.542;2022-12-07T16:31:20;100134.00;;;1.90
64960;BMP180;51487;52.266;10.542;2022-12-07T16:33:48;100128.00;;;1.90
64960;BMP180;51487;52.266;10.542;2022-12-07T16:36:15;100123.00;;;2.00